Time;durP1;ratioP1;P1;durP2;ratioP2;P2;SDS_P1;SDS_P2;PMS_P1;PMS_P2;Temp;Humidity;BMP_temperature;BMP_pressure;BME280_temperature;BME280_humidity;BME280_pressure;Samples;Min_cycle;Max_cycle;Signal;HPM_P1;HPM_P2
2023/04/11 00:00:54;;;;;;;2.88;1.42;;;16.10;76.80;;;;;;4124832;28;20053;-69
2023/04/11 00:03:37;;;;;;;1.95;1.13;;;16.10;76.60;;;;;;4111768;28;20065;-68
2023/04/11 00:06:18;;;;;;;3.15;0.73;;;16.10;76.50;;;;;;4125740;28;20169;-69
2023/04/11 00:08:59;;;;;;;3.17;0.82;;;16.10;76.70;;;;;;4127654;28;20404;-69
2023/04/11 00:11:40;;;;;;;2.58;1.25;;;16.10;76.10;;;;;;4127410;28;20488;-69
2023/04/11 00:14:21;;;;;;;2.78;1.10;;;16.10;76.00;;;;;;4127383;28;20433;-69
2023/04/11 00:17:02;;;;;;;4.22;1.17;;;16.10;76.60;;;;;;4127198;28;20587;-68
2023/04/11 00:19:45;;;;;;;2.78;1.10;;;16.10;76.60;;;;;;4111128;28;20517;-68
2023/04/11 00:22:26;;;;;;;3.03;1.58;;;16.10;76.60;;;;;;4111162;28;20077;-69
2023/04/11 00:25:08;;;;;;;3.83;1.00;;;16.10;76.50;;;;;;4110002;28;20185;-68
2023/04/11 00:27:49;;;;;;;;;;;16.10;76.50;;;;;;4110766;28;20517;-68
2023/04/11 00:30:30;;;;;;;2.72;1.20;;;16.10;77.40;;;;;;4111300;28;20011;-68
2023/04/11 00:33:11;;;;;;;2.95;1.45;;;16.10;77.10;;;;;;4116406;28;20505;-68
2023/04/11 00:35:54;;;;;;;4.65;1.13;;;16.00;76.60;;;;;;4111156;28;20046;-68
2023/04/11 00:38:35;;;;;;;2.72;1.08;;;16.10;76.40;;;;;;4111108;28;20054;-68
2023/04/11 00:41:16;;;;;;;2.42;0.80;;;16.00;76.40;;;;;;4121020;28;20050;-68
2023/04/11 00:43:57;;;;;;;3.93;0.97;;;16.00;76.40;;;;;;4122177;28;20057;-68
2023/04/11 00:46:40;;;;;;;3.72;1.27;;;16.00;76.40;;;;;;4125703;28;20371;-69
2023/04/11 00:49:22;;;;;;;3.05;1.20;;;16.00;76.10;;;;;;4126245;28;20496;-69
2023/04/11 00:52:05;;;;;;;1.58;1.20;;;16.00;76.00;;;;;;4126730;28;20057;-68
2023/04/11 00:54:46;;;;;;;4.45;1.55;;;16.00;76.10;;;;;;4112453;28;20049;-69
2023/04/11 00:57:29;;;;;;;7.22;1.73;;;16.00;76.10;;;;;;4126723;28;20123;-69
2023/04/11 01:00:12;;;;;;;7.63;1.55;;;16.00;76.00;;;;;;4125525;28;20077;-69
2023/04/11 01:02:53;;;;;;;7.18;2.08;;;16.00;76.20;;;;;;4125205;28;20052;-68
2023/04/11 01:05:35;;;;;;;7.03;2.17;;;16.00;76.10;;;;;;4124549;28;20121;-69
2023/04/11 01:08:18;;;;;;;4.47;1.33;;;16.00;76.40;;;;;;4125870;28;20092;-68
2023/04/11 01:10:59;;;;;;;5.07;1.65;;;16.00;76.20;;;;;;4126309;28;20053;-69
2023/04/11 01:13:42;;;;;;;7.82;2.45;;;16.00;76.10;;;;;;4125302;28;20062;-69
2023/04/11 01:16:23;;;;;;;4.45;1.90;;;16.00;76.30;;;;;;4125469;28;20544;-68
2023/04/11 01:19:04;;;;;;;12.10;2.80;;;16.00;76.70;;;;;;4126635;28;20065;-68
2023/04/11 01:21:46;;;;;;;7.28;1.63;;;15.90;76.60;;;;;;4126486;28;20169;-69
2023/04/11 01:24:28;;;;;;;9.38;1.73;;;16.00;76.50;;;;;;4123679;28;20054;-69
2023/04/11 01:27:10;;;;;;;6.72;1.70;;;15.90;76.30;;;;;;4125349;28;20517;-69
2023/04/11 01:29:51;;;;;;;7.65;1.98;;;15.90;77.50;;;;;;4125507;28;20049;-69
2023/04/11 01:32:32;;;;;;;9.93;2.15;;;15.90;76.30;;;;;;4125679;28;20064;-69
2023/04/11 01:35:13;;;;;;;8.70;1.65;;;15.90;76.50;;;;;;4125322;28;20716;-69
2023/04/11 01:37:54;;;;;;;7.80;1.58;;;15.90;76.70;;;;;;4126518;28;20066;-69
2023/04/11 01:40:38;;;;;;;5.32;1.30;;;15.90;76.60;;;;;;4127124;28;20056;-69
2023/04/11 01:43:18;;;;;;;6.15;1.23;;;15.90;76.30;;;;;;4129115;28;20493;-69
2023/04/11 01:46:00;;;;;;;5.63;1.48;;;15.80;76.20;;;;;;4113799;28;20395;-69
2023/04/11 01:48:41;;;;;;;3.63;1.60;;;15.90;76.60;;;;;;4117797;28;20054;-69
2023/04/11 01:51:23;;;;;;;7.93;1.50;;;15.80;77.60;;;;;;4103902;28;20081;-68
2023/04/11 01:54:05;;;;;;;4.88;1.30;;;15.80;76.70;;;;;;4113221;28;20525;-68
2023/04/11 01:56:47;;;;;;;6.30;1.55;;;15.80;76.50;;;;;;4112235;28;20133;-68
2023/04/11 01:59:28;;;;;;;5.78;1.50;;;15.80;76.30;;;;;;4125519;28;20823;-69
2023/04/11 02:02:09;;;;;;;3.50;1.30;;;15.80;76.40;;;;;;4112008;28;20058;-68
2023/04/11 02:04:50;;;;;;;5.32;1.65;;;15.80;76.50;;;;;;4112481;28;20297;-68
2023/04/11 02:07:31;;;;;;;7.15;1.60;;;15.80;76.50;;;;;;4113435;28;20442;-68
2023/04/11 02:10:12;;;;;;;6.35;1.85;;;15.80;76.40;;;;;;4115600;28;20532;-67
2023/04/11 02:12:54;;;;;;;4.63;1.85;;;15.70;76.30;;;;;;4128288;28;20057;-68
2023/04/11 02:15:35;;;;;;;7.82;1.80;;;15.80;76.60;;;;;;4127943;28;20061;-68
2023/04/11 02:18:16;;;;;;;3.83;1.33;;;15.80;76.20;;;;;;4138886;28;20061;-69
2023/04/11 02:20:57;;;;;;;2.92;1.48;;;15.80;76.20;;;;;;4128033;28;20120;-68
2023/04/11 02:23:40;;;;;;;6.18;1.55;;;15.70;76.40;;;;;;4127797;28;20057;-68
2023/04/11 02:26:20;;;;;;;4.77;0.70;;;15.70;76.60;;;;;;4128836;28;20181;-69
2023/04/11 02:29:03;;;;;;;1.48;0.82;;;15.70;76.80;;;;;;4124156;28;20057;-69
2023/04/11 02:31:43;;;;;;;1.73;0.63;;;15.60;77.00;;;;;;4125130;28;20085;-68
2023/04/11 02:34:25;;;;;;;1.80;0.63;;;15.70;77.10;;;;;;4116854;28;20120;-68
2023/04/11 02:37:06;;;;;;;3.20;0.80;;;15.70;77.20;;;;;;4128488;28;20061;-69
2023/04/11 02:39:46;;;;;;;1.15;0.60;;;15.60;77.30;;;;;;4128602;28;20050;-69
2023/04/11 02:42:28;;;;;;;2.25;0.60;;;15.70;77.70;;;;;;4128516;28;20057;-69
2023/04/11 02:45:11;;;;;;;2.17;0.43;;;15.70;76.90;;;;;;4115670;28;20066;-69
2023/04/11 02:47:52;;;;;;;3.22;0.95;;;15.60;77.10;;;;;;4110887;28;20046;-69
2023/04/11 02:50:33;;;;;;;2.47;0.80;;;15.60;77.30;;;;;;4098316;28;20062;-68
2023/04/11 02:53:15;;;;;;;2.70;0.88;;;15.60;77.20;;;;;;4110854;28;20058;-68
2023/04/11 02:56:01;;;;;;;0.93;0.50;;;15.60;77.30;;;;;;4110489;28;20041;-69
2023/04/11 02:58:42;;;;;;;2.55;0.70;;;15.60;77.30;;;;;;4117802;28;20510;-69
2023/04/11 03:01:28;;;;;;;1.65;0.52;;;15.60;77.40;;;;;;4121428;28;20449;-69
2023/04/11 03:04:09;;;;;;;0.80;0.80;;;15.60;77.30;;;;;;4110993;28;20128;-69
2023/04/11 03:07:07;;;;;;;2.42;0.90;;;15.60;77.20;;;;;;4111075;28;20054;-69
2023/04/11 03:09:49;;;;;;;5.03;0.70;;;15.60;77.20;;;;;;4119608;28;20057;-69
2023/04/11 03:12:30;;;;;;;2.10;1.00;;;15.60;77.10;;;;;;4128836;28;20045;-69
2023/04/11 03:15:16;;;;;;;3.15;0.70;;;15.60;77.40;;;;;;4127236;28;20057;-69
2023/04/11 03:17:58;;;;;;;2.20;0.90;;;15.50;77.30;;;;;;4127837;28;20178;-69
2023/04/11 03:20:39;;;;;;;1.52;0.65;;;15.50;77.10;;;;;;4127013;28;20505;-69
2023/04/11 03:23:22;;;;;;;1.40;0.70;;;15.50;77.30;;;;;;4126926;28;20050;-69
2023/04/11 03:26:05;;;;;;;2.65;0.65;;;15.50;77.30;;;;;;4126646;28;20057;-69
2023/04/11 03:28:46;;;;;;;2.28;0.75;;;15.50;77.00;;;;;;4128105;28;20104;-69
2023/04/11 03:31:30;;;;;;;2.95;0.70;;;15.50;77.00;;;;;;4126683;28;20073;-69
2023/04/11 03:34:13;;;;;;;1.92;0.65;;;15.50;77.20;;;;;;4122560;28;20184;-69
2023/04/11 03:36:54;;;;;;;1.25;0.80;;;15.50;77.20;;;;;;4118981;28;20053;-69
2023/04/11 03:39:35;;;;;;;2.20;0.70;;;15.40;77.30;;;;;;4126524;28;20185;-69
2023/04/11 03:42:16;;;;;;;2.08;1.10;;;15.50;77.30;;;;;;4126851;28;20053;-68
2023/04/11 03:45:01;;;;;;;2.22;0.98;;;15.50;77.40;;;;;;4126691;28;20057;-68
2023/04/11 03:47:42;;;;;;;4.65;0.73;;;15.50;77.70;;;;;;4126089;28;20061;-68
2023/04/11 03:50:27;;;;;;;2.47;1.35;;;15.40;77.80;;;;;;4113507;28;20068;-69
2023/04/11 03:53:12;;;;;;;2.63;1.23;;;15.50;78.80;;;;;;4125988;28;20100;-68
2023/04/11 03:55:56;;;;;;;1.67;0.77;;;15.40;77.80;;;;;;4126402;28;20513;-68
2023/04/11 03:58:44;;;;;;;3.22;0.90;;;15.40;77.70;;;;;;4126567;28;20398;-68
2023/04/11 04:01:26;;;;;;;1.85;1.00;;;15.40;78.60;;;;;;4126237;28;20062;-69
2023/04/11 04:04:12;;;;;;;4.28;1.15;;;15.40;77.60;;;;;;4126048;28;20057;-68
2023/04/11 04:06:58;;;;;;;3.90;1.10;;;15.40;77.60;;;;;;4111380;28;20140;-68
2023/04/11 04:09:47;;;;;;;8.88;1.38;;;15.40;77.60;;;;;;4116477;28;20614;-68
2023/04/11 04:12:28;;;;;;;;;;;15.40;77.70;;;;;;4114629;28;20061;-69
2023/04/11 04:15:27;;;;;;;3.20;1.10;;;15.40;77.80;;;;;;4130913;28;20396;-68
2023/04/11 04:18:08;;;;;;;2.28;1.00;;;15.40;78.40;;;;;;4126903;28;20132;-68
2023/04/11 04:21:00;;;;;;;3.53;1.15;;;15.40;78.20;;;;;;4125861;28;20054;-68
2023/04/11 04:23:48;;;;;;;4.38;1.23;;;15.40;78.40;;;;;;4126274;28;20124;-68
2023/04/11 04:26:52;;;;;;;3.50;1.45;;;15.30;79.20;;;;;;4111380;28;20112;-69
2023/04/11 04:30:03;;;;;;;5.65;1.35;;;15.40;78.60;;;;;;4118696;28;20061;-68
2023/04/11 04:33:11;;;;;;;4.65;1.08;;;15.30;78.40;;;;;;4127155;28;20080;-69
2023/04/11 04:35:58;;;;;;;3.58;1.50;;;15.30;79.30;;;;;;4125563;28;20493;-68
2023/04/11 04:38:42;;;;;;;4.82;1.55;;;15.30;78.40;;;;;;4125914;28;20053;-69
2023/04/11 04:41:25;;;;;;;4.32;2.80;;;15.30;78.40;;;;;;4125678;28;20049;-68
2023/04/11 04:44:12;;;;;;;3.05;1.50;;;15.30;78.40;;;;;;4109398;28;20057;-68
2023/04/11 04:46:58;;;;;;;3.83;1.17;;;15.30;78.30;;;;;;4109515;28;20054;-68
2023/04/11 04:49:41;;;;;;;5.95;1.63;;;15.30;78.20;;;;;;4109801;28;20061;-69
2023/04/11 04:52:23;;;;;;;7.93;1.67;;;15.30;79.20;;;;;;4109003;28;20126;-68
2023/04/11 04:55:06;;;;;;;3.78;1.40;;;15.30;78.20;;;;;;4117369;28;20402;-69
2023/04/11 04:57:48;;;;;;;5.63;2.05;;;15.30;78.00;;;;;;4125506;28;20057;-69
2023/04/11 05:00:30;;;;;;;4.72;1.88;;;15.30;78.10;;;;;;4110550;28;20509;-68
2023/04/11 05:03:15;;;;;;;7.97;2.28;;;15.30;78.10;;;;;;4109636;28;20062;-68
2023/04/11 05:05:58;;;;;;;;;;;15.30;78.30;;;;;;4124858;28;20057;-67
2023/04/11 05:08:39;;;;;;;4.03;1.15;;;15.30;79.00;;;;;;4125784;28;19932;-68
2023/04/11 05:11:22;;;;;;;4.53;1.73;;;15.20;78.70;;;;;;4125476;28;20501;-67
2023/04/11 05:14:06;;;;;;;4.63;1.80;;;15.30;78.60;;;;;;4124756;28;20058;-67
2023/04/11 05:16:47;;;;;;;3.72;1.52;;;15.30;78.60;;;;;;4121682;28;20132;-68
2023/04/11 05:19:28;;;;;;;7.20;1.75;;;15.30;78.40;;;;;;4109296;28;20054;-68
2023/04/11 05:22:09;;;;;;;7.60;1.75;;;15.20;78.40;;;;;;4109328;28;20053;-68
2023/04/11 05:24:55;;;;;;;4.72;1.48;;;15.20;78.40;;;;;;4118116;28;20501;-68
2023/04/11 05:27:36;;;;;;;5.68;2.20;;;15.20;78.20;;;;;;4114026;28;20046;-68
2023/04/11 05:30:19;;;;;;;11.98;2.15;;;15.20;78.30;;;;;;4125329;28;20181;-68
2023/04/11 05:33:02;;;;;;;3.60;1.67;;;15.20;78.30;;;;;;4124071;28;20084;-68
2023/04/11 05:35:43;;;;;;;7.30;1.73;;;15.20;78.40;;;;;;4113830;28;20062;-68
2023/04/11 05:38:24;;;;;;;5.93;1.80;;;15.20;78.50;;;;;;4126288;28;20057;-70
2023/04/11 05:41:10;;;;;;;5.75;1.95;;;15.20;78.60;;;;;;4125051;28;20493;-64
2023/04/11 05:43:50;;;;;;;;;;;15.20;78.60;;;;;;4126986;28;20046;-61
2023/04/11 05:46:35;;;;;;;6.32;1.90;;;15.20;79.10;;;;;;4098149;28;19928;-66
2023/04/11 05:49:16;;;;;;;5.95;2.03;;;15.30;79.50;;;;;;4109360;28;20077;-67
2023/04/11 05:51:57;;;;;;;5.22;1.73;;;15.30;79.30;;;;;;4109357;28;20050;-65
2023/04/11 05:54:38;;;;;;;5.50;2.30;;;15.30;79.10;;;;;;4115439;28;20184;-67
2023/04/11 05:57:19;;;;;;;3.70;1.48;;;15.30;78.90;;;;;;4125498;28;20053;-67
2023/04/11 06:00:00;;;;;;;6.72;1.90;;;15.20;78.80;;;;;;4126027;28;20052;-66
2023/04/11 06:02:53;;;;;;;;;;;15.30;78.80;;;;;;4126457;28;20128;-67
2023/04/11 06:05:34;;;;;;;2.67;1.60;;;15.30;79.00;;;;;;4124331;28;19976;-68
2023/04/11 06:08:15;;;;;;;8.25;2.53;;;15.30;79.30;;;;;;4109789;28;20077;-68
2023/04/11 06:10:56;;;;;;;5.20;1.88;;;15.20;79.10;;;;;;4110004;28;20077;-68
2023/04/11 06:13:37;;;;;;;5.78;1.70;;;15.20;79.10;;;;;;4111435;28;20387;-67
2023/04/11 06:16:18;;;;;;;4.47;1.92;;;15.20;79.00;;;;;;4116370;28;20201;-69
2023/04/11 06:19:01;;;;;;;;;;;15.20;79.00;;;;;;4126559;28;20057;-67
2023/04/11 06:21:41;;;;;;;7.03;1.70;;;15.20;79.20;;;;;;4125022;28;20281;-67
2023/04/11 06:24:35;;;;;;;5.63;2.05;;;15.20;79.50;;;;;;4119324;28;20040;-66
2023/04/11 06:27:16;;;;;;;6.60;1.08;;;15.20;79.30;;;;;;4128910;28;20062;-66
2023/04/11 06:29:57;;;;;;;3.47;1.60;;;15.10;79.50;;;;;;4117312;28;20375;-68
2023/04/11 06:32:38;;;;;;;6.47;1.08;;;15.10;79.50;;;;;;4112675;28;20062;-68
2023/04/11 06:35:23;;;;;;;;;;;15.10;79.30;;;;;;4119853;28;20386;-68
2023/04/11 06:38:04;;;;;;;8.73;2.20;;;15.10;79.40;;;;;;4128929;28;20269;-68
2023/04/11 06:40:45;;;;;;;3.80;1.90;;;15.20;80.40;;;;;;4128572;28;20532;-68
2023/04/11 06:43:26;;;;;;;6.47;2.22;;;15.10;79.40;;;;;;4128574;28;20053;-68
2023/04/11 06:46:07;;;;;;;6.13;1.52;;;15.20;79.30;;;;;;4128786;28;20493;-68
2023/04/11 06:48:49;;;;;;;5.53;1.75;;;15.10;79.30;;;;;;4128346;28;20062;-68
2023/04/11 06:51:31;;;;;;;10.02;2.40;;;15.20;80.20;;;;;;4128494;28;20050;-68
2023/04/11 06:54:12;;;;;;;9.52;2.00;;;15.10;79.20;;;;;;4128651;28;20058;-68
2023/04/11 06:56:53;;;;;;;5.63;1.77;;;15.10;79.10;;;;;;4128679;28;20624;-68
2023/04/11 06:59:34;;;;;;;3.08;1.60;;;15.10;78.90;;;;;;4128655;28;20069;-69
2023/04/11 07:02:15;;;;;;;3.70;1.40;;;15.10;78.90;;;;;;4125785;28;20392;-68
2023/04/11 07:04:56;;;;;;;5.07;2.00;;;15.10;79.70;;;;;;4126326;28;20088;-68
2023/04/11 07:07:39;;;;;;;5.22;2.10;;;15.10;79.70;;;;;;4126038;28;20409;-68
2023/04/11 07:10:24;;;;;;;8.90;2.28;;;15.10;78.50;;;;;;4125674;28;20516;-68
2023/04/11 07:13:05;;;;;;;9.32;2.60;;;15.10;78.30;;;;;;4125524;28;20073;-68
2023/04/11 07:15:46;;;;;;;6.43;2.05;;;15.10;78.40;;;;;;4125139;28;20060;-67
2023/04/11 07:18:27;;;;;;;6.43;2.22;;;15.10;78.80;;;;;;4125840;28;20057;-67
2023/04/11 07:21:12;;;;;;;8.32;2.10;;;15.10;79.70;;;;;;4125423;28;20069;-67
2023/04/11 07:23:54;;;;;;;5.53;1.75;;;15.10;78.80;;;;;;4125355;28;20053;-67
2023/04/11 07:26:37;;;;;;;7.35;2.08;;;15.10;79.00;;;;;;4125217;28;20053;-68
2023/04/11 07:29:19;;;;;;;9.80;2.72;;;15.10;78.80;;;;;;4125145;28;20337;-68
2023/04/11 07:31:59;;;;;;;4.90;2.13;;;15.10;78.60;;;;;;4125629;28;20057;-69
2023/04/11 07:34:41;;;;;;;8.05;2.22;;;15.10;78.70;;;;;;4125220;28;20061;-69
2023/04/11 07:37:21;;;;;;;10.35;2.08;;;15.10;78.70;;;;;;4125074;28;20508;-70
2023/04/11 07:40:09;;;;;;;10.00;2.28;;;15.10;78.70;;;;;;4124137;28;20138;-69
2023/04/11 07:42:50;;;;;;;12.20;2.58;;;15.20;78.80;;;;;;4125147;28;20045;-68
2023/04/11 07:45:32;;;;;;;5.03;1.42;;;15.20;78.90;;;;;;4125533;28;20068;-68
2023/04/11 07:48:12;;;;;;;;;;;15.20;78.80;;;;;;4125450;28;20151;-68
2023/04/11 07:50:54;;;;;;;10.20;1.75;;;15.20;78.70;;;;;;4124400;28;20059;-71
2023/04/11 07:53:35;;;;;;;7.78;2.08;;;15.30;79.20;;;;;;4124644;28;20061;-68
2023/04/11 07:56:17;;;;;;;10.80;1.83;;;15.30;78.70;;;;;;4124496;28;20132;-68
2023/04/11 07:58:58;;;;;;;9.48;2.03;;;15.30;78.50;;;;;;4124558;28;20054;-68
2023/04/11 08:01:39;;;;;;;7.55;2.30;;;15.30;78.30;;;;;;4124718;28;20061;-68
2023/04/11 08:04:20;;;;;;;17.45;2.28;;;15.30;78.40;;;;;;4125119;28;20076;-68
2023/04/11 08:07:01;;;;;;;10.95;2.17;;;15.30;78.60;;;;;;4124063;28;20065;-68
2023/04/11 08:09:42;;;;;;;10.32;2.45;;;15.40;78.50;;;;;;4123857;28;20073;-67
2023/04/11 08:12:24;;;;;;;9.63;2.88;;;15.40;78.40;;;;;;4124074;28;20045;-66
2023/04/11 08:15:05;;;;;;;11.57;2.38;;;15.40;78.20;;;;;;4114161;28;20097;-66
2023/04/11 08:17:48;;;;;;;6.07;1.77;;;15.30;78.40;;;;;;4124156;28;20057;-68
2023/04/11 08:20:30;;;;;;;5.70;1.48;;;15.30;78.00;;;;;;4124704;28;20200;-67
2023/04/11 08:23:10;;;;;;;4.72;1.48;;;15.30;78.30;;;;;;4123847;28;20112;-66
2023/04/11 08:25:51;;;;;;;5.57;1.60;;;15.30;78.30;;;;;;4123236;28;20057;-66
2023/04/11 08:28:34;;;;;;;6.13;1.80;;;15.30;78.10;;;;;;4124573;28;20058;-66
2023/04/11 08:31:16;;;;;;;4.80;1.65;;;15.30;78.30;;;;;;4124795;28;20501;-66
2023/04/11 08:33:57;;;;;;;4.68;1.60;;;15.30;78.20;;;;;;4124825;28;20054;-66
2023/04/11 08:36:41;;;;;;;7.28;2.40;;;15.40;78.70;;;;;;4123741;28;20513;-66
2023/04/11 08:39:25;;;;;;;5.15;1.40;;;15.30;79.60;;;;;;4124249;28;20072;-67
2023/04/11 08:42:06;;;;;;;7.25;2.00;;;15.40;77.60;;;;;;4124473;28;20065;-66
2023/04/11 08:44:54;;;;;;;8.70;2.38;;;15.30;77.00;;;;;;4123613;28;20053;-66
2023/04/11 08:47:35;;;;;;;9.15;2.13;;;15.30;77.20;;;;;;4124296;28;20061;-66
2023/04/11 08:50:17;;;;;;;10.57;2.00;;;15.30;77.40;;;;;;4124216;28;20493;-66
2023/04/11 08:53:00;;;;;;;5.55;1.60;;;15.30;78.00;;;;;;4124087;28;20406;-66
2023/04/11 08:55:46;;;;;;;8.13;2.42;;;15.40;78.50;;;;;;4124343;28;20627;-66
2023/04/11 08:58:26;;;;;;;7.57;1.38;;;15.40;78.60;;;;;;4123610;28;20057;-66
2023/04/11 09:01:31;;;;;;;7.15;1.90;;;15.40;78.60;;;;;;4122216;28;20120;-66
2023/04/11 09:04:12;;;;;;;9.25;2.22;;;15.50;78.20;;;;;;4120349;28;20126;-68
2023/04/11 09:06:57;;;;;;;5.68;1.60;;;15.50;78.60;;;;;;4122939;28;20053;-67
2023/04/11 09:09:40;;;;;;;11.70;1.73;;;15.50;79.30;;;;;;4124362;28;20108;-67
2023/04/11 09:12:29;;;;;;;3.58;1.55;;;15.60;79.20;;;;;;4123123;28;20061;-66
2023/04/11 09:15:18;;;;;;;7.65;1.95;;;15.70;79.40;;;;;;4122319;28;20560;-67
2023/04/11 09:18:00;;;;;;;7.93;1.67;;;15.70;79.60;;;;;;4123925;28;20543;-67
2023/04/11 09:20:42;;;;;;;5.03;1.50;;;15.70;78.90;;;;;;4122518;28;20139;-66
2023/04/11 09:23:22;;;;;;;4.03;1.40;;;15.80;78.60;;;;;;4123657;28;20124;-66
2023/04/11 09:26:09;;;;;;;4.55;1.90;;;15.80;78.80;;;;;;4122997;28;20065;-66
2023/04/11 09:28:52;;;;;;;7.43;1.60;;;15.80;78.40;;;;;;4122189;28;20228;-67
2023/04/11 09:31:41;;;;;;;5.32;1.40;;;15.90;77.80;;;;;;4124069;28;20116;-67
2023/04/11 09:34:26;;;;;;;4.10;2.00;;;15.90;77.50;;;;;;4123559;28;20057;-67
2023/04/11 09:37:07;;;;;;;6.03;1.80;;;15.90;77.40;;;;;;4123240;28;20132;-66
2023/04/11 09:39:58;;;;;;;3.63;1.75;;;16.00;77.40;;;;;;4122725;28;20053;-66
2023/04/11 09:42:41;;;;;;;;;;;16.00;76.60;;;;;;4123408;28;20065;-66
2023/04/11 09:45:24;;;;;;;4.60;1.40;;;16.00;76.00;;;;;;4123555;28;20465;-66
2023/04/11 09:48:05;;;;;;;5.30;1.15;;;15.90;75.30;;;;;;4123778;28;20457;-66
2023/04/11 09:50:48;;;;;;;6.05;1.45;;;15.90;74.70;;;;;;4123568;28;20529;-66
2023/04/11 09:53:31;;;;;;;5.82;1.63;;;15.80;75.10;;;;;;4123266;28;20512;-66
2023/04/11 09:56:13;;;;;;;3.97;1.30;;;15.80;75.60;;;;;;4107755;28;20065;-66
2023/04/11 09:58:56;;;;;;;5.72;1.40;;;15.80;75.60;;;;;;4107098;28;20054;-66
2023/04/11 10:01:39;;;;;;;3.25;1.20;;;15.70;75.80;;;;;;4110562;28;20057;-66
2023/04/11 10:04:21;;;;;;;6.32;1.30;;;15.70;76.00;;;;;;4110474;28;20065;-64
2023/04/11 10:07:12;;;;;;;5.32;1.92;;;15.70;75.90;;;;;;4110468;28;20501;-66
2023/04/11 10:09:54;;;;;;;4.38;1.42;;;15.70;75.80;;;;;;4109812;28;20525;-67
2023/04/11 10:12:35;;;;;;;6.10;1.58;;;15.70;76.20;;;;;;4110516;28;20157;-67
2023/04/11 10:15:17;;;;;;;5.10;1.60;;;15.70;76.40;;;;;;4110092;28;20525;-66
2023/04/11 10:18:08;;;;;;;4.10;1.27;;;15.70;76.50;;;;;;4110359;28;20402;-67
2023/04/11 10:20:49;;;;;;;5.00;1.63;;;15.60;77.40;;;;;;4110112;28;20054;-67
2023/04/11 10:24:08;;;;;;;0.70;0.50;;;15.60;76.70;;;;;;4109998;28;20069;-67
2023/04/11 10:26:51;;;;;;;2.83;1.20;;;15.60;75.50;;;;;;4109907;28;20190;-67
2023/04/11 10:29:59;;;;;;;3.72;1.00;;;15.60;76.30;;;;;;4109658;28;20189;-67
2023/04/11 10:32:41;;;;;;;2.65;1.20;;;15.60;75.70;;;;;;4096640;28;20058;-68
2023/04/11 10:35:23;;;;;;;2.17;1.10;;;15.60;76.20;;;;;;4109387;28;20054;-68
2023/04/11 10:38:25;;;;;;;5.07;1.23;;;15.50;76.30;;;;;;4109849;28;20058;-67
2023/04/11 10:41:34;;;;;;;4.65;1.35;;;15.60;76.80;;;;;;4108978;28;20054;-68
2023/04/11 10:44:21;;;;;;;6.05;1.23;;;15.60;76.40;;;;;;4096293;28;20510;-67
2023/04/11 10:47:02;;;;;;;3.50;1.35;;;15.60;76.50;;;;;;4109945;28;20053;-67
2023/04/11 10:49:44;;;;;;;3.92;1.02;;;15.60;76.30;;;;;;4096941;28;20077;-67
2023/04/11 10:52:27;;;;;;;5.38;1.30;;;15.60;76.30;;;;;;4109392;28;20066;-68
2023/04/11 10:55:16;;;;;;;2.13;1.00;;;15.60;76.30;;;;;;4121657;28;20104;-68
2023/04/11 10:58:06;;;;;;;2.55;0.63;;;15.60;76.10;;;;;;4125635;28;20056;-69
2023/04/11 11:01:13;;;;;;;1.50;0.90;;;15.60;75.70;;;;;;4125632;28;20065;-68
2023/04/11 11:04:00;;;;;;;3.42;1.13;;;15.60;74.40;;;;;;4125196;28;20062;-69
2023/04/11 11:06:41;;;;;;;2.33;1.20;;;15.60;74.50;;;;;;4124507;28;20093;-68
2023/04/11 11:09:27;;;;;;;0.85;0.60;;;15.60;73.50;;;;;;4124406;28;20045;-69
2023/04/11 11:12:10;;;;;;;2.50;0.70;;;15.50;73.60;;;;;;4124852;28;20061;-68
2023/04/11 11:14:53;;;;;;;2.05;0.80;;;15.50;73.10;;;;;;4124906;28;20053;-68
2023/04/11 11:17:35;;;;;;;1.92;0.85;;;15.50;73.40;;;;;;4125607;28;20065;-68
2023/04/11 11:20:18;;;;;;;2.53;1.00;;;15.50;72.60;;;;;;4123862;28;20057;-67
2023/04/11 11:23:01;;;;;;;4.10;1.30;;;15.50;74.10;;;;;;4124681;28;20061;-68
2023/04/11 11:25:52;;;;;;;4.88;2.00;;;15.50;73.10;;;;;;4125388;28;20566;-68
2023/04/11 11:28:33;;;;;;;7.13;2.03;;;15.50;72.90;;;;;;4125454;28;20061;-68
2023/04/11 11:31:15;;;;;;;3.97;1.80;;;15.50;72.60;;;;;;4125559;28;20054;-68
2023/04/11 11:33:56;;;;;;;4.72;1.70;;;15.50;73.20;;;;;;4124801;28;20104;-69
2023/04/11 11:36:46;;;;;;;2.00;1.38;;;15.50;73.50;;;;;;4120346;28;20077;-68
2023/04/11 11:39:27;;;;;;;3.80;1.38;;;15.50;73.20;;;;;;4125052;28;20057;-68
2023/04/11 11:42:08;;;;;;;1.42;0.70;;;15.50;73.00;;;;;;4125244;28;20512;-68
2023/04/11 11:44:49;;;;;;;2.60;1.13;;;15.50;73.60;;;;;;4124879;28;20181;-69
2023/04/11 11:47:41;;;;;;;3.30;1.00;;;15.50;73.30;;;;;;4125059;28;20057;-68
2023/04/11 11:50:27;;;;;;;2.95;1.65;;;15.50;72.80;;;;;;4124611;28;21142;-68
2023/04/11 11:53:13;;;;;;;4.20;1.48;;;15.60;72.80;;;;;;4124517;28;20066;-69
2023/04/11 11:55:55;;;;;;;5.03;1.27;;;15.50;72.80;;;;;;4124800;28;20413;-69
2023/04/11 11:58:43;;;;;;;3.20;0.93;;;15.60;72.80;;;;;;4123759;28;20536;-69
2023/04/11 12:01:24;;;;;;;3.63;1.42;;;15.50;72.10;;;;;;4124110;28;20488;-69
2023/04/11 12:04:10;;;;;;;3.00;1.00;;;15.60;72.40;;;;;;4124390;28;20617;-68
2023/04/11 12:06:51;;;;;;;6.35;1.55;;;15.60;72.50;;;;;;4124563;28;20057;-69
2023/04/11 12:09:32;;;;;;;2.03;1.20;;;15.60;72.30;;;;;;4124382;28;20057;-69
2023/04/11 12:12:15;;;;;;;5.95;2.08;;;15.60;72.70;;;;;;4124713;28;20103;-68
2023/04/11 12:14:57;;;;;;;3.67;1.10;;;15.60;72.70;;;;;;4122873;28;20053;-68
2023/04/11 12:17:38;;;;;;;8.27;1.77;;;15.60;72.50;;;;;;4124363;28;20065;-68
2023/04/11 12:20:24;;;;;;;3.80;1.60;;;15.70;72.10;;;;;;4123467;28;20543;-67
2023/04/11 12:23:05;;;;;;;9.82;1.95;;;15.60;71.60;;;;;;4123165;28;20255;-69
2023/04/11 12:25:46;;;;;;;3.72;1.27;;;15.70;71.70;;;;;;4123706;28;20053;-68
2023/04/11 12:28:27;;;;;;;9.95;1.73;;;15.70;70.90;;;;;;4123282;28;20046;-69
2023/04/11 12:31:09;;;;;;;8.70;2.17;;;15.70;70.20;;;;;;4122847;28;20104;-68
2023/04/11 12:33:50;;;;;;;2.38;1.20;;;15.60;70.50;;;;;;4124331;28;20189;-68
2023/04/11 12:36:35;;;;;;;5.38;1.88;;;15.60;70.40;;;;;;4113102;28;20137;-68
2023/04/11 12:39:16;;;;;;;6.55;1.60;;;15.60;71.00;;;;;;4123891;28;20053;-69
2023/04/11 12:41:57;;;;;;;6.97;1.77;;;15.60;71.10;;;;;;4124220;28;20049;-68
2023/04/11 12:44:38;;;;;;;4.75;1.70;;;15.60;71.20;;;;;;4123245;28;20108;-66
2023/04/11 12:47:19;;;;;;;8.80;2.35;;;15.60;71.70;;;;;;4123113;28;20065;-66
2023/04/11 12:50:00;;;;;;;11.10;3.20;;;15.50;72.40;;;;;;4124321;28;20065;-65
2023/04/11 12:52:42;;;;;;;3.22;1.50;;;15.60;72.80;;;;;;4122820;28;20209;-66
2023/04/11 12:55:23;;;;;;;4.40;1.67;;;15.60;72.50;;;;;;4122828;28;20065;-69
2023/04/11 12:58:06;;;;;;;7.97;1.92;;;15.60;72.60;;;;;;4123814;28;20460;-67
2023/04/11 13:00:47;;;;;;;7.07;1.40;;;15.60;72.20;;;;;;4123497;28;20409;-70
2023/04/11 13:03:28;;;;;;;6.13;1.85;;;15.60;71.80;;;;;;4123105;28;20135;-67
2023/04/11 13:06:10;;;;;;;5.30;1.40;;;15.60;71.70;;;;;;4122510;28;20136;-66
2023/04/11 13:08:52;;;;;;;6.85;2.42;;;15.60;71.70;;;;;;4123824;28;20100;-66
2023/04/11 13:11:33;;;;;;;8.18;1.98;;;15.60;71.20;;;;;;4123317;28;20440;-67
2023/04/11 13:14:14;;;;;;;9.82;2.03;;;15.60;71.20;;;;;;4123744;28;20104;-66
2023/04/11 13:16:55;;;;;;;7.40;1.80;;;15.60;71.20;;;;;;4123974;28;20062;-65
2023/04/11 13:19:36;;;;;;;4.20;1.25;;;15.60;71.30;;;;;;4123939;28;20061;-66
2023/04/11 13:22:17;;;;;;;7.20;1.67;;;15.60;71.80;;;;;;4123721;28;20057;-66
2023/04/11 13:24:59;;;;;;;7.65;1.52;;;15.60;72.30;;;;;;4123069;28;20130;-65
2023/04/11 13:27:41;;;;;;;7.28;2.17;;;15.60;72.60;;;;;;4123769;28;20433;-66
2023/04/11 13:30:23;;;;;;;6.20;2.10;;;15.60;72.40;;;;;;4122827;28;20136;-66
2023/04/11 13:33:04;;;;;;;7.47;1.90;;;15.60;72.40;;;;;;4123445;28;20061;-66
2023/04/11 13:35:45;;;;;;;10.48;2.40;;;15.60;71.80;;;;;;4124962;28;20056;-65
2023/04/11 13:38:27;;;;;;;5.20;1.67;;;15.60;71.40;;;;;;4114505;28;20056;-65
2023/04/11 13:41:09;;;;;;;11.43;2.60;;;15.60;71.20;;;;;;4126633;28;20532;-66
2023/04/11 13:43:52;;;;;;;7.88;2.47;;;15.60;71.00;;;;;;4125630;28;20053;-68
2023/04/11 13:46:33;;;;;;;6.53;2.35;;;15.60;70.80;;;;;;4127705;28;20430;-67
2023/04/11 13:49:14;;;;;;;10.45;2.63;;;15.60;71.10;;;;;;4125092;28;20164;-68
2023/04/11 13:51:55;;;;;;;5.90;1.70;;;15.60;70.90;;;;;;4126135;28;20069;-67
2023/04/11 13:54:37;;;;;;;9.32;2.15;;;15.60;71.00;;;;;;4127938;28;20109;-68
2023/04/11 13:57:20;;;;;;;6.40;2.13;;;15.60;71.20;;;;;;4124368;28;20053;-66
2023/04/11 14:00:03;;;;;;;11.85;3.15;;;15.50;71.30;;;;;;4127183;28;20057;-67
2023/04/11 14:02:44;;;;;;;9.40;2.40;;;15.50;70.80;;;;;;4125084;28;20127;-66
2023/04/11 14:05:25;;;;;;;5.90;1.85;;;15.60;70.70;;;;;;4126411;28;20108;-65
2023/04/11 14:08:06;;;;;;;6.43;2.35;;;15.50;70.70;;;;;;4127303;28;20065;-66
2023/04/11 14:10:47;;;;;;;7.97;2.13;;;15.50;70.90;;;;;;4124614;28;20505;-67